Time;durP1;ratioP1;P1;durP2;ratioP2;P2;SDS_P1;SDS_P2;PMS_P1;PMS_P2;Temp;Humidity;BMP_temperature;BMP_pressure;BME280_temperature;BME280_humidity;BME280_pressure;Samples;Min_cycle;Max_cycle;Signal;HPM_P1;HPM_P2
2024/03/01 00:01:43;;;;;;;22.23;10.95;;;1.80;99.90;;;;;;5039271;28;20053;-70
2024/03/01 00:04:09;;;;;;;20.90;10.30;;;1.80;99.90;;;;;;5043812;28;20195;-70
2024/03/01 00:06:35;;;;;;;17.48;10.05;;;1.80;99.90;;;;;;5039680;28;20120;-70
2024/03/01 00:09:01;;;;;;;21.80;10.35;;;1.70;99.90;;;;;;5041462;28;20446;-70
2024/03/01 00:11:26;;;;;;;20.33;9.48;;;1.70;99.90;;;;;;5039381;28;20029;-70
2024/03/01 00:13:52;;;;;;;19.90;10.30;;;1.70;99.90;;;;;;5040567;28;20040;-69
2024/03/01 00:16:19;;;;;;;18.92;9.73;;;1.80;99.90;;;;;;5054504;28;20037;-70
2024/03/01 00:18:44;;;;;;;22.08;10.35;;;1.80;99.90;;;;;;5039574;28;20067;-70
2024/03/01 00:21:17;;;;;;;16.75;8.70;;;1.70;99.90;;;;;;5044097;28;20037;-70
2024/03/01 00:23:43;;;;;;;20.70;10.50;;;1.70;99.90;;;;;;5045267;28;20029;-70
2024/03/01 00:26:09;;;;;;;20.15;9.75;;;1.80;99.90;;;;;;5039054;28;20028;-70
2024/03/01 00:28:35;;;;;;;15.35;8.50;;;1.70;99.90;;;;;;5043299;28;20032;-71
2024/03/01 00:31:03;;;;;;;18.67;9.57;;;1.70;99.90;;;;;;5040756;28;20031;-70
2024/03/01 00:33:29;;;;;;;23.17;9.82;;;1.70;99.90;;;;;;5042458;28;20371;-71
2024/03/01 00:35:55;;;;;;;19.80;9.00;;;1.60;99.90;;;;;;5041144;28;20036;-72
2024/03/01 00:38:21;;;;;;;17.40;9.40;;;1.50;99.90;;;;;;5039779;28;20024;-70
2024/03/01 00:40:47;;;;;;;21.60;10.23;;;1.50;99.90;;;;;;5043552;28;20083;-70
2024/03/01 00:43:13;;;;;;;18.83;9.30;;;1.50;99.90;;;;;;5039089;28;20032;-70
2024/03/01 00:45:39;;;;;;;17.45;9.65;;;1.40;99.90;;;;;;5044357;28;20033;-71
2024/03/01 00:48:11;;;;;;;21.92;10.13;;;1.40;99.90;;;;;;5044022;28;20478;-71
2024/03/01 00:50:38;;;;;;;16.80;10.20;;;1.40;99.90;;;;;;5042909;28;20094;-70
2024/03/01 00:53:05;;;;;;;22.20;10.70;;;1.40;99.90;;;;;;5036673;28;20044;-71
2024/03/01 00:55:32;;;;;;;18.13;9.85;;;1.50;99.90;;;;;;5043191;28;20263;-72
2024/03/01 00:57:57;;;;;;;18.40;9.38;;;1.40;99.90;;;;;;5045403;28;20417;-69
2024/03/01 01:00:23;;;;;;;15.90;8.82;;;1.20;99.90;;;;;;5040644;28;20086;-71
2024/03/01 01:02:49;;;;;;;20.58;10.40;;;0.90;99.90;;;;;;5038549;28;20116;-70
2024/03/01 01:05:15;;;;;;;19.63;9.38;;;0.90;99.90;;;;;;5042094;28;20029;-70
2024/03/01 01:07:42;;;;;;;18.48;9.15;;;0.90;99.90;;;;;;5039234;28;20125;-70
2024/03/01 01:10:08;;;;;;;23.30;9.05;;;1.00;99.90;;;;;;5038333;28;20382;-70
2024/03/01 01:12:34;;;;;;;16.20;8.50;;;1.10;99.90;;;;;;5043381;28;20036;-72
2024/03/01 01:15:05;;;;;;;14.77;8.90;;;1.10;99.90;;;;;;5041522;28;20028;-71
2024/03/01 01:17:31;;;;;;;16.00;7.88;;;1.10;99.90;;;;;;5041035;28;20041;-71
2024/03/01 01:19:58;;;;;;;15.80;8.85;;;1.10;99.90;;;;;;5043034;28;20090;-70
2024/03/01 01:22:25;;;;;;;18.98;9.02;;;1.10;99.90;;;;;;5045167;28;20487;-72
2024/03/01 01:24:51;;;;;;;17.75;8.98;;;1.10;99.90;;;;;;5045053;28;20017;-71
2024/03/01 01:27:17;;;;;;;20.77;8.63;;;1.20;99.90;;;;;;5044616;28;20160;-71
2024/03/01 01:29:42;;;;;;;13.55;7.93;;;1.30;99.90;;;;;;5043889;28;20462;-70
2024/03/01 01:32:08;;;;;;;16.92;9.57;;;1.30;99.90;;;;;;5041625;28;20043;-70
2024/03/01 01:34:34;;;;;;;16.67;8.60;;;1.30;99.90;;;;;;5042414;28;20078;-70
2024/03/01 01:37:00;;;;;;;16.27;8.75;;;1.40;99.90;;;;;;5043723;28;20028;-69
2024/03/01 01:39:26;;;;;;;18.42;8.45;;;1.30;99.90;;;;;;5044310;28;20044;-70
2024/03/01 01:41:52;;;;;;;22.15;11.15;;;1.20;99.90;;;;;;5038364;28;20025;-72
2024/03/01 01:44:17;;;;;;;19.13;9.35;;;1.30;99.90;;;;;;5042155;28;20021;-72
2024/03/01 01:46:48;;;;;;;20.80;9.85;;;1.40;99.90;;;;;;5040953;28;20148;-70
2024/03/01 01:49:15;;;;;;;22.30;9.65;;;1.40;99.90;;;;;;5044214;28;20033;-71
2024/03/01 01:51:41;;;;;;;17.50;9.52;;;1.50;99.90;;;;;;5045695;28;20032;-71
2024/03/01 01:54:08;;;;;;;21.17;9.27;;;1.40;99.90;;;;;;5040107;28;20058;-71
2024/03/01 01:56:34;;;;;;;18.08;10.00;;;1.50;99.90;;;;;;5043146;28;20041;-72
2024/03/01 01:59:00;;;;;;;21.38;7.57;;;1.60;99.90;;;;;;5043253;28;20036;-70
2024/03/01 02:01:27;;;;;;;21.95;9.85;;;1.50;99.90;;;;;;5043347;28;20041;-71
2024/03/01 02:03:52;;;;;;;18.90;8.95;;;1.40;99.90;;;;;;5041250;28;20025;-71
2024/03/01 02:06:21;;;;;;;17.83;10.20;;;1.30;99.90;;;;;;5044026;28;20447;-71
2024/03/01 02:08:48;;;;;;;23.48;11.55;;;1.30;99.90;;;;;;5036371;28;20129;-70
2024/03/01 02:11:14;;;;;;;19.58;11.60;;;1.40;99.90;;;;;;5040797;28;20025;-69
2024/03/01 02:13:40;;;;;;;31.35;13.32;;;1.40;99.90;;;;;;5038065;28;20147;-71
2024/03/01 02:16:06;;;;;;;44.08;15.57;;;1.40;99.90;;;;;;5040121;28;20021;-71
2024/03/01 02:18:34;;;;;;;26.73;12.70;;;1.40;99.90;;;;;;5039613;28;20026;-71
2024/03/01 02:21:04;;;;;;;32.55;12.00;;;1.30;99.90;;;;;;5042853;28;20130;-71
2024/03/01 02:23:30;;;;;;;30.48;12.93;;;1.30;99.90;;;;;;5038733;28;20299;-72
2024/03/01 02:25:55;;;;;;;27.52;12.63;;;1.30;99.90;;;;;;5039623;28;20033;-74
2024/03/01 02:28:21;;;;;;;41.33;14.15;;;1.40;99.90;;;;;;5039546;28;20021;-72
2024/03/01 02:30:47;;;;;;;32.33;13.55;;;1.40;99.90;;;;;;5040470;28;20032;-71
2024/03/01 02:33:13;;;;;;;87.50;23.05;;;1.50;99.90;;;;;;5042942;28;20036;-70
2024/03/01 02:35:39;;;;;;;100.07;16.67;;;1.50;99.90;;;;;;5040964;28;20029;-70
2024/03/01 02:38:04;;;;;;;28.50;12.93;;;1.60;99.90;;;;;;5040963;28;20033;-71
2024/03/01 02:40:31;;;;;;;88.00;17.42;;;1.60;99.90;;;;;;5042934;28;20033;-71
2024/03/01 02:42:57;;;;;;;37.00;15.95;;;1.60;99.90;;;;;;5041236;28;20060;-71
2024/03/01 02:45:22;;;;;;;73.68;18.48;;;1.60;99.90;;;;;;5040933;28;20033;-72
2024/03/01 02:47:49;;;;;;;44.05;14.70;;;1.50;99.90;;;;;;5042997;28;20052;-70
2024/03/01 02:50:15;;;;;;;38.85;14.90;;;1.50;99.90;;;;;;5043721;28;20441;-71
2024/03/01 02:52:40;;;;;;;37.38;11.10;;;1.50;99.90;;;;;;5049094;28;20032;-71
2024/03/01 02:55:07;;;;;;;37.10;13.98;;;1.30;99.90;;;;;;5046859;28;20051;-70
2024/03/01 02:57:33;;;;;;;27.45;12.45;;;1.30;99.90;;;;;;5041520;28;20530;-70
2024/03/01 02:59:59;;;;;;;45.17;13.27;;;1.40;99.90;;;;;;5039504;28;20037;-69
2024/03/01 03:02:26;;;;;;;50.60;15.25;;;1.40;99.90;;;;;;5042544;28;20502;-70
2024/03/01 03:04:53;;;;;;;16.15;10.05;;;1.50;99.90;;;;;;5047518;28;20022;-70
2024/03/01 03:07:20;;;;;;;26.27;11.13;;;1.50;99.90;;;;;;5045124;28;20108;-71
2024/03/01 03:09:46;;;;;;;17.98;10.98;;;1.50;99.90;;;;;;5046996;28;20115;-70
2024/03/01 03:12:12;;;;;;;23.75;10.73;;;1.50;99.90;;;;;;5046766;28;20367;-72
2024/03/01 03:14:38;;;;;;;27.10;11.52;;;1.60;99.90;;;;;;5042364;28;20020;-70
2024/03/01 03:17:07;;;;;;;33.40;13.07;;;1.60;99.90;;;;;;5041040;28;20208;-71
2024/03/01 03:19:35;;;;;;;31.38;13.63;;;1.60;99.90;;;;;;5045131;28;20037;-70
2024/03/01 03:22:08;;;;;;;28.75;12.02;;;1.70;99.90;;;;;;5045974;28;20028;-72
2024/03/01 03:24:34;;;;;;;29.15;14.90;;;1.70;99.90;;;;;;5042260;28;20513;-71
2024/03/01 03:27:00;;;;;;;18.27;11.25;;;1.80;99.90;;;;;;5045005;28;20189;-70
2024/03/01 03:29:26;;;;;;;36.42;12.38;;;1.80;99.90;;;;;;5044869;28;20545;-70
2024/03/01 03:31:52;;;;;;;35.50;13.13;;;1.80;99.90;;;;;;5046304;28;20021;-72
2024/03/01 03:34:17;;;;;;;25.95;11.43;;;1.90;99.90;;;;;;5045623;28;20021;-71
2024/03/01 03:36:43;;;;;;;30.15;11.98;;;1.90;99.90;;;;;;5045728;28;20060;-71
2024/03/01 03:39:09;;;;;;;21.92;11.45;;;1.90;99.90;;;;;;5043369;28;20029;-71
2024/03/01 03:41:35;;;;;;;38.22;12.93;;;2.00;99.90;;;;;;5042691;28;20044;-71
2024/03/01 03:44:01;;;;;;;42.97;11.88;;;2.00;99.90;;;;;;5041003;28;20025;-70
2024/03/01 03:46:28;;;;;;;54.72;12.55;;;2.00;99.90;;;;;;5043276;28;20440;-71
2024/03/01 03:48:54;;;;;;;39.33;15.48;;;2.00;99.90;;;;;;5042841;28;20025;-72
2024/03/01 03:51:27;;;;;;;22.98;11.90;;;2.00;99.90;;;;;;5045018;28;20040;-71
2024/03/01 03:54:04;;;;;;;25.42;11.05;;;2.00;99.90;;;;;;5041367;28;20064;-70
2024/03/01 03:56:35;;;;;;;23.92;12.77;;;2.00;99.90;;;;;;5046926;28;20229;-71
2024/03/01 03:59:01;;;;;;;20.88;12.93;;;2.00;99.90;;;;;;5046667;28;20426;-71
2024/03/01 04:01:27;;;;;;;21.45;12.70;;;2.10;99.90;;;;;;5044486;28;20079;-71
2024/03/01 04:03:53;;;;;;;9.95;5.93;;;2.10;99.90;;;;;;5041161;28;20098;-71
2024/03/01 04:06:18;;;;;;;49.22;16.38;;;2.00;99.90;;;;;;5040278;28;20500;-71
2024/03/01 04:08:44;;;;;;;23.58;11.63;;;2.10;99.90;;;;;;5043900;28;20028;-71
2024/03/01 04:11:10;;;;;;;27.50;13.23;;;2.10;99.90;;;;;;5042429;28;20021;-71
2024/03/01 04:13:37;;;;;;;15.13;9.10;;;2.10;99.90;;;;;;5036562;28;20025;-71
2024/03/01 04:16:06;;;;;;;23.00;12.45;;;2.10;99.90;;;;;;5038020;28;20101;-72
2024/03/01 04:18:33;;;;;;;25.88;14.48;;;2.10;99.90;;;;;;5043745;28;20497;-72
2024/03/01 04:21:00;;;;;;;26.55;13.48;;;2.20;99.90;;;;;;5045220;28;20044;-72
2024/03/01 04:23:27;;;;;;;44.05;13.48;;;2.20;99.90;;;;;;5047144;28;20096;-71
2024/03/01 04:25:54;;;;;;;24.60;11.75;;;2.20;99.90;;;;;;5041307;28;20100;-72
2024/03/01 04:28:25;;;;;;;36.65;13.93;;;2.30;99.90;;;;;;5046086;28;20033;-73
2024/03/01 04:30:52;;;;;;;25.70;13.10;;;2.20;99.90;;;;;;5042698;28;20481;-72
2024/03/01 04:33:17;;;;;;;20.65;11.75;;;2.30;99.90;;;;;;5040658;28;20034;-72
2024/03/01 04:35:43;;;;;;;29.10;14.55;;;2.30;99.90;;;;;;5045670;28;20049;-71
2024/03/01 04:38:10;;;;;;;29.98;13.93;;;2.30;99.90;;;;;;5041824;28;20033;-72
2024/03/01 04:40:37;;;;;;;30.65;13.95;;;2.30;99.90;;;;;;5043247;28;20452;-72
2024/03/01 04:43:07;;;;;;;29.48;12.90;;;2.40;99.90;;;;;;5047644;28;20025;-73
2024/03/01 04:45:33;;;;;;;29.15;14.25;;;2.40;99.90;;;;;;5044857;28;20108;-72
2024/03/01 04:47:59;;;;;;;34.50;16.48;;;2.50;99.90;;;;;;5046304;28;20040;-72
2024/03/01 04:50:26;;;;;;;17.20;8.52;;;2.50;99.90;;;;;;5045694;28;20041;-73
2024/03/01 04:52:52;;;;;;;27.52;12.70;;;2.50;99.90;;;;;;5047335;28;20025;-72
2024/03/01 04:55:18;;;;;;;29.38;14.55;;;2.50;99.90;;;;;;5042073;28;20098;-73
2024/03/01 04:57:44;;;;;;;34.72;15.48;;;2.60;99.90;;;;;;5042703;28;20044;-72
2024/03/01 05:00:13;;;;;;;29.73;14.95;;;2.60;99.90;;;;;;5037470;28;20029;-71
2024/03/01 05:02:41;;;;;;;22.00;13.25;;;2.60;99.90;;;;;;5046180;28;20490;-71
2024/03/01 05:05:08;;;;;;;32.50;14.77;;;2.60;99.90;;;;;;5041110;28;20357;-70
2024/03/01 05:07:34;;;;;;;24.13;12.10;;;2.70;99.90;;;;;;5047854;28;20025;-71
2024/03/01 05:09:59;;;;;;;29.20;15.68;;;2.60;99.90;;;;;;5041196;28;20260;-72
2024/03/01 05:12:25;;;;;;;33.53;12.82;;;2.70;99.90;;;;;;5045698;28;20036;-71
2024/03/01 05:14:51;;;;;;;27.90;13.98;;;2.70;99.90;;;;;;5043602;28;20025;-71
2024/03/01 05:17:17;;;;;;;34.20;15.63;;;2.70;99.90;;;;;;5048406;28;20260;-72
2024/03/01 05:19:43;;;;;;;33.78;15.80;;;2.70;99.90;;;;;;5051983;28;20021;-73
2024/03/01 05:22:12;;;;;;;35.90;16.75;;;2.80;99.90;;;;;;5053655;28;20466;-74
2024/03/01 05:24:41;;;;;;;31.45;15.07;;;2.80;99.90;;;;;;5055281;28;20548;-73
2024/03/01 05:27:13;;;;;;;25.38;13.18;;;2.80;99.90;;;;;;5051453;28;20033;-71
2024/03/01 05:29:38;;;;;;;34.92;14.57;;;2.90;99.90;;;;;;5040398;28;20565;-71
2024/03/01 05:32:04;;;;;;;33.40;16.02;;;2.90;99.90;;;;;;5038797;28;20374;-72
2024/03/01 05:34:30;;;;;;;30.05;15.55;;;2.90;99.90;;;;;;5041648;28;20155;-72
2024/03/01 05:36:56;;;;;;;36.15;17.13;;;2.90;99.90;;;;;;5043632;28;20104;-71
2024/03/01 05:39:22;;;;;;;36.55;18.50;;;2.90;99.90;;;;;;5043353;28;20165;-73
2024/03/01 05:41:48;;;;;;;37.17;15.40;;;2.90;99.90;;;;;;5044483;28;20071;-72
2024/03/01 05:44:16;;;;;;;28.10;15.35;;;2.90;99.90;;;;;;5039028;28;20033;-72
2024/03/01 05:46:42;;;;;;;32.03;14.20;;;3.00;99.90;;;;;;5046243;28;20025;-73
2024/03/01 05:49:11;;;;;;;27.60;13.70;;;3.00;99.90;;;;;;5042407;28;20021;-72
2024/03/01 05:51:38;;;;;;;17.48;9.07;;;3.00;99.90;;;;;;5044825;28;20037;-71
2024/03/01 05:54:04;;;;;;;31.83;15.73;;;3.10;99.90;;;;;;5040528;28;20465;-72
2024/03/01 05:57:12;;;;;;;29.55;14.23;;;3.00;99.90;;;;;;5040723;28;20374;-71
2024/03/01 05:59:57;;;;;;;;;;;;;;;;;;;;;
2024/03/01 06:13:06;;;;;;;21.45;12.95;;;3.20;99.90;;;;;;4929840;29;20031;-74
2024/03/01 06:15:35;;;;;;;22.30;11.05;;;3.20;99.90;;;;;;5018726;28;20439;-72
2024/03/01 06:18:01;;;;;;;26.83;12.93;;;3.20;99.90;;;;;;5028747;28;20056;-73
2024/03/01 06:20:47;;;;;;;33.60;15.70;;;3.20;99.90;;;;;;5042468;28;20496;-74
2024/03/01 06:23:17;;;;;;;31.45;15.60;;;3.20;99.90;;;;;;5064059;28;20375;-71
2024/03/01 06:26:00;;;;;;;18.85;9.75;;;3.20;99.90;;;;;;5051297;28;20044;-72
2024/03/01 06:28:49;;;;;;;27.90;14.27;;;3.20;99.90;;;;;;5046235;28;20034;-71
2024/03/01 06:31:18;;;;;;;30.15;15.38;;;3.20;99.90;;;;;;5045149;28;20220;-72
2024/03/01 06:33:46;;;;;;;;;;;3.30;99.90;;;;;;5049495;28;20056;-71
2024/03/01 06:36:13;;;;;;;24.65;12.95;;;3.30;99.90;;;;;;5048157;28;19913;-71
2024/03/01 06:38:39;;;;;;;15.15;7.88;;;3.30;99.90;;;;;;5048105;28;20028;-71
2024/03/01 06:41:08;;;;;;;26.80;13.75;;;3.30;99.90;;;;;;5046162;28;20033;-72
2024/03/01 06:43:34;;;;;;;23.15;11.88;;;3.30;99.90;;;;;;5044432;28;20474;-72
2024/03/01 06:46:18;;;;;;;27.65;14.30;;;3.30;99.90;;;;;;5044067;28;20059;-73
2024/03/01 06:49:19;;;;;;;29.58;14.20;;;3.30;99.90;;;;;;5044401;28;20083;-72
2024/03/01 06:52:06;;;;;;;27.83;14.30;;;3.30;99.90;;;;;;5049327;28;20049;-72
2024/03/01 06:58:55;;;;;;;28.80;14.63;;;3.40;99.90;;;;;;5046493;28;20090;-72
2024/03/01 07:02:27;;;;;;;;;;;;;;;;;;;;;
2024/03/01 07:12:18;;;;;;;29.23;13.30;;;3.50;99.90;;;;;;5021612;28;20055;-71
2024/03/01 07:14:44;;;;;;;26.83;13.10;;;3.40;99.90;;;;;;5019366;28;20069;-71
2024/03/01 07:17:10;;;;;;;35.58;17.15;;;3.40;99.90;;;;;;5029466;28;20107;-72
2024/03/01 07:19:35;;;;;;;35.20;14.73;;;3.50;99.90;;;;;;5022786;28;20424;-71
2024/03/01 07:22:01;;;;;;;26.38;13.45;;;3.50;99.90;;;;;;5020849;28;20052;-71
2024/03/01 07:24:26;;;;;;;27.73;13.95;;;3.50;99.90;;;;;;5004615;28;20499;-71
2024/03/01 07:26:52;;;;;;;32.67;15.27;;;3.50;99.90;;;;;;5007735;28;20239;-72
2024/03/01 07:29:17;;;;;;;26.08;13.80;;;3.50;99.90;;;;;;5020830;28;20584;-71
2024/03/01 07:31:43;;;;;;;24.27;14.20;;;3.60;99.90;;;;;;5027116;28;20041;-71
2024/03/01 07:34:15;;;;;;;35.78;16.45;;;3.60;99.90;;;;;;5043471;28;20551;-71
2024/03/01 07:37:06;;;;;;;;;;;;;;;;;;;;;
2024/03/01 07:39:44;;;;;;;29.50;13.73;;;3.60;99.90;;;;;;5042313;28;20025;-72
2024/03/01 07:42:33;;;;;;;29.60;15.98;;;3.70;99.90;;;;;;5049527;28;20467;-73
2024/03/01 07:44:59;;;;;;;28.92;15.20;;;3.70;99.90;;;;;;5046000;28;20029;-72
2024/03/01 07:47:26;;;;;;;32.35;14.68;;;3.80;99.90;;;;;;5046501;28;20509;-72
2024/03/01 07:49:52;;;;;;;31.23;15.07;;;3.80;99.90;;;;;;5042749;28;20482;-71
2024/03/01 07:52:17;;;;;;;31.42;15.75;;;3.90;99.90;;;;;;5046037;28;20032;-72
2024/03/01 07:54:43;;;;;;;28.45;14.43;;;3.90;99.90;;;;;;5041751;28;20198;-71
2024/03/01 07:57:09;;;;;;;34.22;15.02;;;4.00;99.90;;;;;;5041002;28;20029;-71
2024/03/01 07:59:35;;;;;;;29.08;14.10;;;4.00;99.90;;;;;;5043783;28;20029;-71
2024/03/01 08:02:01;;;;;;;29.98;15.48;;;4.10;99.90;;;;;;5044215;28;20040;-71
2024/03/01 08:04:27;;;;;;;31.98;15.38;;;4.10;99.90;;;;;;5043818;28;20041;-72
2024/03/01 08:06:53;;;;;;;30.27;13.90;;;4.10;99.90;;;;;;5045960;28;20040;-70
2024/03/01 08:09:31;;;;;;;31.77;14.85;;;4.20;99.90;;;;;;5045116;28;20025;-72
2024/03/01 08:11:57;;;;;;;32.30;15.57;;;4.30;99.90;;;;;;5042020;28;20081;-73
2024/03/01 08:14:27;;;;;;;33.85;14.52;;;4.30;99.90;;;;;;5044940;28;20124;-73
2024/03/01 08:16:54;;;;;;;30.60;15.32;;;4.40;99.90;;;;;;5042226;28;20025;-73
2024/03/01 08:19:21;;;;;;;33.80;14.88;;;4.50;99.90;;;;;;5047045;28;20116;-71
2024/03/01 08:22:13;;;;;;;33.00;16.17;;;4.50;99.90;;;;;;5043844;28;20558;-71
2024/03/01 08:24:49;;;;;;;21.65;11.30;;;4.60;99.90;;;;;;5045749;28;20521;-71
2024/03/01 08:27:22;;;;;;;32.63;15.23;;;4.60;99.90;;;;;;5044643;28;20090;-73
2024/03/01 08:29:48;;;;;;;29.75;13.70;;;4.70;99.90;;;;;;5043660;28;20030;-72
2024/03/01 08:32:45;;;;;;;26.42;13.55;;;4.80;99.90;;;;;;5044038;28;20033;-72
2024/03/01 08:35:15;;;;;;;38.67;17.70;;;4.80;99.90;;;;;;5036026;28;20041;-72
2024/03/01 08:37:42;;;;;;;30.58;16.10;;;4.90;99.90;;;;;;5044921;28;20033;-73
2024/03/01 08:40:40;;;;;;;29.10;15.07;;;4.90;99.90;;;;;;5041397;28;20029;-72
2024/03/01 08:43:05;;;;;;;;;;;5.00;99.90;;;;;;5044503;28;20045;-72
2024/03/01 08:45:43;;;;;;;31.10;14.45;;;5.00;99.90;;;;;;5044370;28;19951;-72
2024/03/01 08:48:18;;;;;;;23.52;11.88;;;5.20;99.90;;;;;;5045402;28;20541;-71
2024/03/01 08:50:54;;;;;;;25.02;12.88;;;5.30;99.90;;;;;;5045946;28;20685;-72
2024/03/01 08:53:58;;;;;;;30.27;15.75;;;5.30;99.90;;;;;;5045729;28;20557;-71
2024/03/01 08:56:35;;;;;;;30.10;14.80;;;5.40;99.90;;;;;;5038339;28;20220;-72
2024/03/01 08:59:08;;;;;;;32.03;17.33;;;5.50;99.90;;;;;;5044921;28;20079;-71
2024/03/01 09:01:45;;;;;;;28.80;15.07;;;5.60;99.90;;;;;;5027052;28;20521;-72
2024/03/01 09:04:12;;;;;;;35.33;15.95;;;5.70;99.90;;;;;;5022016;28;20034;-71
2024/03/01 09:06:39;;;;;;;27.97;13.07;;;5.80;99.90;;;;;;5013065;28;20149;-72
2024/03/01 09:09:07;;;;;;;33.63;15.23;;;5.80;99.90;;;;;;5019862;28;20041;-72
2024/03/01 09:11:33;;;;;;;35.40;16.15;;;5.90;99.90;;;;;;5022233;28;20479;-72
2024/03/01 09:13:59;;;;;;;29.25;13.75;;;5.90;99.90;;;;;;5017801;28;20044;-72
2024/03/01 09:16:25;;;;;;;16.17;10.15;;;6.10;99.90;;;;;;5024987;28;20057;-73
2024/03/01 09:18:51;;;;;;;15.93;8.82;;;6.20;99.90;;;;;;5022312;28;20026;-71
2024/03/01 09:21:38;;;;;;;38.55;16.05;;;6.20;99.90;;;;;;5019492;28;20041;-71
2024/03/01 09:24:05;;;;;;;12.10;7.60;;;6.30;99.90;;;;;;5020830;28;20033;-72
2024/03/01 09:26:30;;;;;;;33.92;16.58;;;6.40;99.90;;;;;;5034336;28;20478;-73
2024/03/01 09:29:01;;;;;;;34.15;16.23;;;6.40;99.90;;;;;;5013198;28;20033;-72
2024/03/01 09:31:29;;;;;;;43.50;15.43;;;6.50;99.90;;;;;;5035477;28;20124;-72
2024/03/01 09:33:54;;;;;;;28.83;14.60;;;6.50;99.90;;;;;;5041653;28;20469;-73
2024/03/01 09:36:21;;;;;;;35.30;15.50;;;6.60;99.90;;;;;;5041476;28;20021;-73
2024/03/01 09:38:52;;;;;;;35.67;16.63;;;6.80;99.90;;;;;;5044869;28;20025;-72
2024/03/01 09:41:27;;;;;;;29.02;12.77;;;6.90;99.90;;;;;;5048668;28;20017;-72
2024/03/01 09:44:26;;;;;;;26.67;13.57;;;6.90;99.90;;;;;;5043226;28;20026;-75
2024/03/01 09:47:05;;;;;;;23.25;11.77;;;6.90;99.90;;;;;;5044232;28;20031;-72
2024/03/01 09:49:55;;;;;;;25.20;12.60;;;6.90;99.90;;;;;;5053135;28;20045;-73
2024/03/01 09:52:41;;;;;;;33.65;16.38;;;6.90;99.90;;;;;;5049354;28;20501;-72
2024/03/01 09:55:18;;;;;;;32.88;14.95;;;7.00;99.90;;;;;;5048173;28;20428;-71
2024/03/01 09:58:03;;;;;;;41.13;16.13;;;7.10;99.90;;;;;;5044044;28;20499;-72
2024/03/01 10:00:35;;;;;;;32.45;15.93;;;7.20;99.90;;;;;;5048006;28;20033;-72
2024/03/01 10:03:25;;;;;;;36.80;15.30;;;7.30;99.90;;;;;;5048617;28;20433;-72
2024/03/01 10:06:14;;;;;;;37.95;16.48;;;7.30;99.90;;;;;;5048351;28;20513;-72
2024/03/01 10:09:01;;;;;;;33.15;15.98;;;7.40;99.90;;;;;;5050250;28;20096;-72
2024/03/01 10:11:43;;;;;;;30.48;13.70;;;7.40;99.90;;;;;;5045401;28;20048;-74
2024/03/01 10:14:34;;;;;;;28.73;12.68;;;7.50;99.90;;;;;;5043590;28;20461;-72
2024/03/01 10:17:07;;;;;;;15.20;10.18;;;7.50;99.90;;;;;;5045371;28;20029;-72
2024/03/01 10:19:55;;;;;;;29.20;15.02;;;7.50;99.90;;;;;;5047768;28;20036;-73
2024/03/01 10:22:20;;;;;;;17.70;9.30;;;7.40;99.90;;;;;;5038230;28;20086;-72
2024/03/01 10:25:14;;;;;;;29.10;13.02;;;7.50;99.90;;;;;;5046684;28;20036;-72
2024/03/01 10:27:46;;;;;;;22.02;13.15;;;7.50;99.90;;;;;;5056406;28;20124;-74
2024/03/01 10:30:18;;;;;;;30.45;12.57;;;7.50;99.90;;;;;;5043910;28;20033;-72
2024/03/01 10:33:25;;;;;;;20.48;11.80;;;7.60;99.90;;;;;;5045399;28;20322;-72
2024/03/01 10:36:23;;;;;;;24.30;12.03;;;7.60;99.90;;;;;;5047365;28;20016;-73
2024/03/01 10:39:06;;;;;;;31.88;13.73;;;7.60;99.90;;;;;;5046833;28;20083;-73
2024/03/01 10:41:59;;;;;;;35.75;14.38;;;7.70;99.90;;;;;;5044087;28;20437;-73
2024/03/01 10:44:50;;;;;;;18.35;9.52;;;7.80;99.90;;;;;;5042554;28;20021;-73
2024/03/01 10:47:26;;;;;;;39.53;16.73;;;7.80;99.90;;;;;;5039062;28;20018;-72
2024/03/01 10:50:12;;;;;;;27.10;15.02;;;7.80;99.90;;;;;;5043300;28;20052;-72
2024/03/01 10:52:58;;;;;;;18.40;8.57;;;7.90;99.90;;;;;;5045642;28;20036;-72
2024/03/01 10:55:30;;;;;;;28.33;12.95;;;7.90;99.90;;;;;;5042640;28;20035;-74
2024/03/01 10:58:14;;;;;;;20.63;11.45;;;7.90;99.90;;;;;;5048320;28;20029;-72
2024/03/01 11:00:47;;;;;;;14.68;8.23;;;8.00;99.90;;;;;;5046977;28;20041;-73
2024/03/01 11:03:24;;;;;;;17.77;9.95;;;8.00;99.90;;;;;;5047637;28;20512;-73
2024/03/01 11:06:16;;;;;;;22.42;13.27;;;8.00;99.90;;;;;;5050302;28;20021;-73
2024/03/01 11:08:51;;;;;;;26.35;14.90;;;8.10;99.90;;;;;;5041436;28;20597;-72
2024/03/01 11:11:58;;;;;;;24.27;15.65;;;8.00;99.90;;;;;;5039101;28;20021;-72
2024/03/01 11:14:26;;;;;;;20.55;11.27;;;8.00;99.90;;;;;;5032244;28;20487;-73
2024/03/01 11:16:54;;;;;;;13.40;8.30;;;8.00;99.90;;;;;;5049471;28;20450;-72
2024/03/01 11:19:24;;;;;;;27.10;14.25;;;8.10;99.90;;;;;;5049388;28;20021;-72
2024/03/01 11:22:08;;;;;;;21.45;11.68;;;7.90;99.90;;;;;;5043481;28;20528;-72
2024/03/01 11:24:39;;;;;;;17.20;10.43;;;8.20;99.90;;;;;;5050006;28;20372;-72
2024/03/01 11:27:11;;;;;;;16.25;10.25;;;8.10;99.90;;;;;;5049475;28;20021;-72
2024/03/01 11:29:53;;;;;;;10.98;6.63;;;8.10;99.90;;;;;;5047869;28;20047;-73
2024/03/01 11:32:24;;;;;;;8.68;5.25;;;8.10;99.90;;;;;;5044138;28;20591;-72
2024/03/01 11:35:21;;;;;;;11.70;7.18;;;8.20;99.90;;;;;;5047256;28;20028;-74
2024/03/01 11:38:08;;;;;;;14.03;9.53;;;8.30;99.90;;;;;;5056609;28;20075;-71
2024/03/01 11:41:07;;;;;;;18.02;8.90;;;8.30;99.90;;;;;;5045907;28;20033;-72
2024/03/01 11:43:45;;;;;;;6.07;4.70;;;8.40;99.90;;;;;;5045971;28;20029;-71
2024/03/01 11:46:45;;;;;;;5.80;4.40;;;8.30;99.90;;;;;;5047218;28;20418;-73
2024/03/01 11:49:41;;;;;;;13.38;6.70;;;8.30;99.90;;;;;;5041824;28;20021;-73
2024/03/01 11:52:34;;;;;;;7.63;3.70;;;8.30;99.90;;;;;;5043021;28;20025;-72
2024/03/01 11:55:27;;;;;;;12.35;6.30;;;8.40;99.90;;;;;;5043288;28;20033;-72
2024/03/01 11:58:19;;;;;;;9.80;5.75;;;8.40;99.90;;;;;;5044947;28;20029;-71
2024/03/01 12:01:00;;;;;;;9.90;6.70;;;8.40;99.90;;;;;;5041648;28;20091;-72
2024/03/01 12:03:45;;;;;;;10.20;5.90;;;8.30;99.90;;;;;;5037643;28;20414;-73
2024/03/01 12:06:49;;;;;;;6.40;4.25;;;8.40;99.90;;;;;;5045350;28;20035;-72
2024/03/01 12:09:39;;;;;;;12.07;6.07;;;8.30;99.90;;;;;;5041743;28;20209;-72
2024/03/01 12:12:15;;;;;;;3.97;2.83;;;8.40;99.90;;;;;;5044317;28;20033;-71
2024/03/01 12:14:54;;;;;;;9.38;4.07;;;8.40;99.90;;;;;;5043386;28;20071;-71
2024/03/01 12:17:37;;;;;;;6.68;4.20;;;8.50;99.90;;;;;;5049320;28;20079;-72
2024/03/01 12:20:09;;;;;;;11.13;5.53;;;8.50;99.90;;;;;;5046680;28;20041;-73
2024/03/01 12:22:43;;;;;;;9.77;4.30;;;8.50;99.90;;;;;;5048794;28;20031;-73
2024/03/01 12:25:10;;;;;;;9.80;5.53;;;8.70;99.90;;;;;;5045294;28;20382;-74
2024/03/01 12:27:42;;;;;;;9.45;4.63;;;8.60;99.90;;;;;;5045954;28;20021;-73
2024/03/01 12:30:24;;;;;;;12.13;6.00;;;8.60;99.90;;;;;;5036256;28;20014;-73
2024/03/01 12:33:18;;;;;;;11.75;5.38;;;8.70;99.90;;;;;;5046317;28;20394;-73
2024/03/01 12:36:03;;;;;;;5.63;3.63;;;8.70;99.90;;;;;;5043542;28;20032;-74
2024/03/01 12:38:30;;;;;;;7.10;4.50;;;8.70;99.90;;;;;;5065528;28;20051;-71
2024/03/01 12:41:15;;;;;;;11.82;5.88;;;8.60;99.90;;;;;;5059577;28;20059;-71
2024/03/01 12:44:00;;;;;;;7.80;4.25;;;8.60;99.90;;;;;;5062366;28;20013;-72
2024/03/01 12:46:34;;;;;;;6.22;3.70;;;8.70;99.90;;;;;;5058372;28;20005;-72
2024/03/01 12:49:04;;;;;;;2.83;2.42;;;8.70;99.90;;;;;;5067204;28;20008;-72
2024/03/01 12:51:37;;;;;;;5.00;3.53;;;8.70;99.90;;;;;;5068616;28;20093;-73
2024/03/01 12:54:07;;;;;;;11.07;7.07;;;8.70;99.90;;;;;;5064398;28;20260;-73
2024/03/01 12:56:51;;;;;;;4.38;2.95;;;8.60;99.90;;;;;;5063642;28;20017;-73
2024/03/01 12:59:37;;;;;;;8.65;5.07;;;8.50;99.90;;;;;;5066569;28;20013;-72
2024/03/01 13:02:27;;;;;;;10.13;4.93;;;8.60;99.90;;;;;;5066361;28;20045;-72
2024/03/01 13:04:59;;;;;;;6.18;4.22;;;8.60;99.90;;;;;;5066475;28;20027;-72
2024/03/01 13:07:29;;;;;;;7.68;5.05;;;8.70;99.90;;;;;;5066329;28;20023;-72
2024/03/01 13:10:00;;;;;;;8.77;4.32;;;8.70;99.90;;;;;;5066583;28;20025;-73
2024/03/01 13:12:27;;;;;;;10.45;3.88;;;8.60;99.90;;;;;;5059046;28;20018;-72
2024/03/01 13:15:18;;;;;;;3.20;2.90;;;8.50;99.90;;;;;;5061968;28;20128;-72
2024/03/01 13:17:59;;;;;;;3.78;3.05;;;8.50;99.90;;;;;;5063601;28;20009;-72
2024/03/01 13:20:30;;;;;;;4.43;2.88;;;8.50;99.90;;;;;;5068293;28;20058;-73
2024/03/01 13:23:19;;;;;;;6.75;3.08;;;8.40;99.90;;;;;;5067135;28;20085;-71
2024/03/01 13:26:19;;;;;;;4.68;3.70;;;8.40;99.90;;;;;;5057760;28;20029;-72
2024/03/01 13:28:57;;;;;;;6.47;3.13;;;8.40;99.90;;;;;;5044836;28;20063;-72
2024/03/01 13:31:29;;;;;;;3.70;2.97;;;8.40;99.90;;;;;;5044967;28;20033;-73
2024/03/01 13:34:00;;;;;;;7.60;3.03;;;8.50;99.90;;;;;;5046940;28;20024;-73
2024/03/01 13:36:30;;;;;;;6.07;3.53;;;8.40;99.90;;;;;;5045498;28;20056;-72